N95615 / N95615 7700 Squawk Report (24th of June, 2019)

Time Lat Lon Altitude Heading Speed Vertical Rate
2019-06-24 14:38:44 GMT 47.915173 -122.285683 0 180 28 0
2019-06-24 14:38:39 GMT 47.915848 -122.285736 0 177 30 0
2019-06-24 14:38:28 GMT 47.917477 -122.285789 500 180 39 0
2019-06-24 14:38:16 GMT 47.919983 -122.285797 500 180 55 -192
2019-06-24 14:38:06 GMT 47.922783 -122.285858 500 179 61 -256
2019-06-24 14:37:54 GMT 47.926369 -122.285934 600 179 67 -512
2019-06-24 14:37:42 GMT 47.930138 -122.286140 700 175 74 -512
2019-06-24 14:37:31 GMT 47.934280 -122.287056 900 168 83 -704
2019-06-24 14:37:20 GMT 47.938377 -122.288887 1,000 159 95 -640
2019-06-24 14:37:11 GMT 47.942429 -122.291779 1,100 148 101 -1152
2019-06-24 14:37:05 GMT 47.944801 -122.294449 1,300 133 96 -960
2019-06-24 14:36:58 GMT 47.946011 -122.297195 1,300 111 95 -576
2019-06-24 14:36:52 GMT 47.946384 -122.301353 1,400 85 96 -640
2019-06-24 14:36:49 GMT 47.946152 -122.303818 1,400 75 96 -704
2019-06-24 14:36:42 GMT 47.944897 -122.308327 1,500 59 95 -704
2019-06-24 14:36:38 GMT 47.943962 -122.310295 1,600 47 95 -576
2019-06-24 14:36:33 GMT 47.942055 -122.312691 1,600 29 95 -704
2019-06-24 14:36:27 GMT 47.940006 -122.314034 1,700 14 95 -768
2019-06-24 14:36:21 GMT 47.937305 -122.315086 1,800 12 96 -640
2019-06-24 14:36:15 GMT 47.934654 -122.315933 1,800 11 97 -256
2019-06-24 14:36:11 GMT 47.933071 -122.316353 1,800 8 97 -192
2019-06-24 14:36:01 GMT 47.928230 -122.317200 1,900 4 95 -256
2019-06-24 14:35:54 GMT 47.925388 -122.317482 1,900 3 93 -128
2019-06-24 14:35:50 GMT 47.923203 -122.317696 1,900 1 93 -128
2019-06-24 14:35:42 GMT 47.920361 -122.317764 1,900 1 91 64
2019-06-24 14:35:38 GMT 47.919060 -122.317833 1,900 1 90 -192
2019-06-24 14:35:31 GMT 47.914497 -122.317833 1,900 358 85 0
2019-06-24 14:35:17 GMT 47.910259 -122.317551 1,900 0 83 64
2019-06-24 14:35:06 GMT 47.906490 -122.317268 1,900 355 78 192
2019-06-24 14:34:54 GMT 47.902348 -122.316566 1,800 354 77 256
2019-06-24 14:34:45 GMT 47.898342 -122.315582 1,800 348 80 -448
2019-06-24 14:34:33 GMT 47.894478 -122.314102 1,900 345 81 -512
2019-06-24 14:34:24 GMT 47.890335 -122.312408 2,100 341 81 -448
2019-06-24 14:34:13 GMT 47.886986 -122.310654 2,100 342 81 -512
2019-06-24 14:34:02 GMT 47.883121 -122.308823 2,100 344 82 -448
2019-06-24 14:33:49 GMT 47.878696 -122.307129 2,300 352 83 -512
2019-06-24 14:33:40 GMT 47.874741 -122.307198 2,300 7 89 -704
2019-06-24 14:33:29 GMT 47.870598 -122.309029 2,500 28 84 -832
2019-06-24 14:33:18 GMT 47.867290 -122.312553 2,500 38 87 0
2019-06-24 14:33:08 GMT 47.863613 -122.316002 2,600 23 91 -256
2019-06-24 14:32:57 GMT 47.858540 -122.318184 2,600 7 97 -512
2019-06-24 14:32:46 GMT 47.853931 -122.318047 2,700 353 97 -576
2019-06-24 14:32:36 GMT 47.849693 -122.316566 2,800 339 92 -384
2019-06-24 14:32:26 GMT 47.845692 -122.312973 2,900 317 89 -320
2019-06-24 14:32:15 GMT 47.843597 -122.308044 2,900 286 80 128
2019-06-24 14:32:03 GMT 47.843269 -122.302551 2,900 269 69 768
2019-06-24 14:31:53 GMT 47.843410 -122.297058 2,800 269 69 320
2019-06-24 14:31:42 GMT 47.843689 -122.291985 2,700 264 66 640
2019-06-24 14:31:31 GMT 47.844109 -122.287483 2,600 262 64 576
2019-06-24 14:31:21 GMT 47.844620 -122.282761 2,500 260 65 512
2019-06-24 14:31:11 GMT 47.845505 -122.277901 2,400 246 68 768
2019-06-24 14:30:59 GMT 47.847198 -122.274124 2,300 224 74 704
2019-06-24 14:30:54 GMT 47.848858 -122.272057 2,200 210 75 512
2019-06-24 14:30:48 GMT 47.850674 -122.270859 2,200 193 75 448
2019-06-24 14:30:43 GMT 47.852489 -122.270576 2,100 181 75 512
2019-06-24 14:30:39 GMT 47.854351 -122.270576 2,100 178 75 640
2019-06-24 14:30:32 GMT 47.856537 -122.270653 2,000 177 76 640
2019-06-24 14:30:26 GMT 47.859192 -122.270721 1,900 182 76 576
2019-06-24 14:30:20 GMT 47.860123 -122.270721 1,900 181 76 576
2019-06-24 14:30:17 GMT 47.861938 -122.270721 1,900 179 75 576
2019-06-24 14:30:07 GMT 47.865707 -122.270859 1,800 177 73 512
2019-06-24 14:29:56 GMT 47.869061 -122.271072 1,700 181 72 704
2019-06-24 14:29:44 GMT 47.872459 -122.271004 1,600 182 73 512
2019-06-24 14:29:34 GMT 47.876137 -122.270859 1,500 181 68 640
2019-06-24 14:29:23 GMT 47.879627 -122.270927 1,300 180 70 704
2019-06-24 14:29:12 GMT 47.882793 -122.270859 1,200 181 68 576
2019-06-24 14:29:01 GMT 47.886192 -122.270859 1,100 178 67 576
2019-06-24 14:28:51 GMT 47.889496 -122.271072 1,000 176 66 704
2019-06-24 14:28:40 GMT 47.892895 -122.271423 900 176 68 640

Making use of Plane Finder data

You are free to use the raw flight data, aircraft information and images provided in this report for your own purposes provided the data is correctly attributed to Plane Finder. We ask that you please credit Plane Finder and link to planefinder.net in close proximity to the content.

Optionally one of the following logos (no smaller then 150x24px) can be used and must link to planefinder.net

Embedding the Plane Finder map

You are welcome to embed the Plane Finder playback map on your website to offer visitors a more interactive experience. We suggest using the following HTML code:

<iframe src="//planefinder.net/data/report/N95615-N95615-7700-squawk-2019-06-24/map" width="800" height="600" seamless="seamless"></iframe>

Where our data comes from

Plane Finder has a global network of data feeds and antenna radars that receive data broadcast directly from aircraft. The primary technologies used are ADS-B and MLAT. We also show feeds from the FAA and a FLARM glider feed.

Click here to find out more about the Plane Finder network.

How we collect our data